Time;durP1;ratioP1;P1;durP2;ratioP2;P2;SDS_P1;SDS_P2;PMS_P1;PMS_P2;Temp;Humidity;BMP_temperature;BMP_pressure;BME280_temperature;BME280_humidity;BME280_pressure;Samples;Min_cycle;Max_cycle;Signal;HPM_P1;HPM_P2
2023/01/05 00:00:21;;;;;;;0.00;0.00;;;11.50;99.90;;;;;;5066131;28;20050;-72
2023/01/05 00:02:46;;;;;;;0.20;0.10;;;11.50;99.90;;;;;;5066199;28;20106;-72
2023/01/05 00:05:12;;;;;;;0.00;0.00;;;11.40;99.90;;;;;;5067993;28;20025;-71
2023/01/05 00:07:38;;;;;;;0.20;0.10;;;;;;;;;;5068117;28;20021;-72
2023/01/05 00:22:29;;;;;;;0.40;0.10;;;11.60;99.90;;;;;;5070261;28;20025;-73
2023/01/05 00:24:13;;;;;;;0.00;0.00;;;;;;;;;;5026915;28;20049;-74
2023/01/05 00:26:39;;;;;;;0.00;0.00;;;11.80;99.90;;;;;;5057741;28;20043;-74
2023/01/05 00:29:04;;;;;;;0.00;0.00;;;11.70;99.90;;;;;;5070337;28;20028;-73
2023/01/05 00:31:30;;;;;;;0.00;0.00;;;11.90;99.90;;;;;;5069745;28;20016;-74
2023/01/05 00:33:56;;;;;;;0.00;0.00;;;11.60;99.90;;;;;;5070121;28;20086;-74
2023/01/05 00:36:22;;;;;;;0.00;0.00;;;;;;;;;;5070068;28;20473;-74
2023/01/05 00:38:47;;;;;;;0.10;0.10;;;11.60;99.90;;;;;;5061823;28;20448;-74
2023/01/05 00:41:13;;;;;;;0.00;0.00;;;;;;;;;;5050328;28;20063;-74
2023/01/05 00:43:39;;;;;;;0.30;0.00;;;;;;;;;;5049707;28;20469;-74
2023/01/05 00:46:05;;;;;;;0.00;0.00;;;11.60;99.90;;;;;;5069274;28;20021;-74
2023/01/05 00:48:30;;;;;;;0.10;0.10;;;11.70;99.90;;;;;;5069513;28;20492;-75
2023/01/05 00:50:56;;;;;;;0.20;0.05;;;11.70;99.90;;;;;;5069596;28;20032;-74
2023/01/05 00:53:22;;;;;;;0.00;0.00;;;11.70;99.90;;;;;;5067648;28;20059;-74
2023/01/05 00:55:57;;;;;;;0.00;0.00;;;11.70;99.90;;;;;;5067480;28;20109;-75
2023/01/05 00:58:23;;;;;;;0.10;0.10;;;11.80;99.90;;;;;;5068272;28;20448;-75
2023/01/05 01:00:48;;;;;;;0.00;0.00;;;11.50;99.90;;;;;;5068268;28;20096;-74
2023/01/05 01:03:14;;;;;;;0.00;0.00;;;13.20;99.90;;;;;;5069351;28;20368;-74
2023/01/05 01:05:40;;;;;;;0.00;0.00;;;;;;;;;;5071503;28;20031;-74
2023/01/05 01:08:06;;;;;;;0.00;0.00;;;;;;;;;;5072379;28;20032;-74
2023/01/05 01:10:32;;;;;;;0.00;0.00;;;;;;;;;;5071428;28;20024;-74
2023/01/05 01:12:58;;;;;;;0.03;0.03;;;;;;;;;;5070209;28;20111;-74
2023/01/05 01:15:24;;;;;;;0.03;0.03;;;11.30;99.90;;;;;;5071508;28;20118;-74
2023/01/05 01:17:50;;;;;;;0.00;0.00;;;11.40;99.90;;;;;;5072165;28;20096;-74
2023/01/05 01:20:15;;;;;;;0.35;0.13;;;11.40;99.90;;;;;;5072212;28;20044;-72
2023/01/05 01:22:41;;;;;;;0.00;0.00;;;11.50;99.90;;;;;;5068168;28;20300;-74
2023/01/05 01:25:07;;;;;;;0.00;0.00;;;11.60;99.90;;;;;;5066678;28;20051;-74
2023/01/05 01:27:33;;;;;;;0.00;0.00;;;;;;;;;;5073367;28;20448;-73
2023/01/05 01:29:59;;;;;;;0.00;0.00;;;11.30;99.90;;;;;;5065302;28;20053;-73
2023/01/05 01:32:25;;;;;;;0.00;0.00;;;;;;;;;;5073506;28;20103;-74
2023/01/05 01:34:51;;;;;;;0.00;0.00;;;;;;;;;;5073091;28;20267;-74
2023/01/05 01:37:17;;;;;;;0.00;0.00;;;;;;;;;;5071968;28;20044;-74
2023/01/05 01:39:43;;;;;;;0.00;0.00;;;;;;;;;;5070659;28;20027;-74
2023/01/05 01:42:15;;;;;;;0.00;0.00;;;11.30;99.90;;;;;;5070702;28;20408;-74
2023/01/05 01:44:49;;;;;;;0.10;0.10;;;11.00;99.90;;;;;;5069684;28;20922;-74
2023/01/05 01:47:28;;;;;;;0.10;0.10;;;10.90;99.90;;;;;;5070291;28;20020;-73
2023/01/05 01:49:57;;;;;;;0.00;0.00;;;10.60;99.90;;;;;;5073624;28;20396;-73
2023/01/05 01:52:23;;;;;;;0.10;0.10;;;;;;;;;;5071557;28;20020;-72
2023/01/05 01:54:51;;;;;;;0.22;0.22;;;10.60;99.90;;;;;;5071238;28;20408;-73
2023/01/05 01:57:17;;;;;;;0.00;0.00;;;12.10;99.90;;;;;;5071032;28;20119;-73
2023/01/05 01:59:43;;;;;;;0.00;0.00;;;10.70;99.90;;;;;;5071031;28;20024;-72
2023/01/05 02:02:11;;;;;;;0.00;0.00;;;10.70;99.90;;;;;;5071143;28;20499;-73
2023/01/05 02:04:37;;;;;;;0.00;0.00;;;10.70;99.90;;;;;;5071854;28;20020;-72
2023/01/05 02:07:06;;;;;;;0.00;0.00;;;10.60;99.90;;;;;;5073047;28;20021;-72
2023/01/05 02:09:32;;;;;;;0.15;0.03;;;10.70;99.90;;;;;;5072912;28;20023;-72
2023/01/05 02:12:42;;;;;;;0.03;0.00;;;10.50;99.90;;;;;;5072798;28;20028;-72
2023/01/05 02:15:40;;;;;;;0.00;0.00;;;10.50;99.90;;;;;;5017383;28;20057;-72
2023/01/05 02:18:25;;;;;;;0.00;0.00;;;12.60;99.90;;;;;;5072256;28;20029;-72
2023/01/05 02:21:09;;;;;;;0.10;0.10;;;10.40;99.90;;;;;;5072776;28;20055;-72
2023/01/05 02:23:58;;;;;;;0.10;0.10;;;10.30;99.90;;;;;;5072393;28;20025;-72
2023/01/05 02:26:34;;;;;;;;;;;10.30;99.90;;;;;;5072767;28;20667;-72
2023/01/05 02:29:33;;;;;;;0.00;0.00;;;10.40;99.90;;;;;;5072599;28;19908;-72
2023/01/05 02:32:10;;;;;;;0.05;0.05;;;10.20;99.90;;;;;;5070835;28;20174;-72
2023/01/05 02:34:40;;;;;;;1.75;0.68;;;10.20;99.90;;;;;;5072712;28;20024;-72
2023/01/05 02:37:15;;;;;;;0.10;0.10;;;10.10;99.90;;;;;;5072215;28;20043;-72
2023/01/05 02:39:53;;;;;;;0.10;0.10;;;10.30;99.90;;;;;;5072233;28;20020;-72
2023/01/05 02:42:22;;;;;;;0.10;0.00;;;10.40;99.90;;;;;;5072410;28;20115;-72
2023/01/05 02:44:48;;;;;;;0.00;0.00;;;10.50;99.90;;;;;;5072113;28;20067;-72
2023/01/05 02:47:26;;;;;;;0.00;0.00;;;10.40;99.90;;;;;;5070748;28;20033;-73
2023/01/05 02:50:33;;;;;;;0.10;0.05;;;10.60;99.90;;;;;;5070952;28;20028;-72
2023/01/05 02:53:02;;;;;;;0.00;0.00;;;10.60;99.90;;;;;;5069708;28;20056;-72
2023/01/05 02:55:43;;;;;;;0.05;0.05;;;10.60;99.90;;;;;;5070482;28;20107;-73
2023/01/05 02:58:18;;;;;;;0.10;0.10;;;10.70;99.90;;;;;;5072049;28;20498;-72
2023/01/05 03:00:59;;;;;;;0.00;0.00;;;10.60;99.90;;;;;;5070501;28;20469;-73
2023/01/05 03:03:53;;;;;;;0.00;0.00;;;10.80;99.90;;;;;;5071996;28;20024;-73
2023/01/05 03:06:27;;;;;;;0.00;0.00;;;10.80;99.90;;;;;;5071987;28;20047;-72
2023/01/05 03:09:01;;;;;;;0.00;0.00;;;10.80;99.90;;;;;;5071755;28;20055;-73
2023/01/05 03:14:52;;;;;;;0.10;0.10;;;11.00;99.90;;;;;;5071536;28;20027;-73
2023/01/05 03:17:25;;;;;;;0.00;0.00;;;10.80;99.90;;;;;;5070342;28;20032;-73
2023/01/05 03:19:52;;;;;;;0.00;0.00;;;10.70;99.90;;;;;;5071722;28;20024;-73
2023/01/05 03:36:40;;;;;;;0.00;0.00;;;;;;;;;;5069583;28;20563;-73
2023/01/05 03:39:08;;;;;;;0.00;0.00;;;10.90;99.90;;;;;;5068404;28;20021;-73
2023/01/05 03:41:35;;;;;;;0.00;0.00;;;10.90;99.90;;;;;;5069796;28;20112;-73
2023/01/05 03:44:01;;;;;;;0.00;0.00;;;10.90;99.90;;;;;;5069507;28;20451;-73
2023/01/05 03:46:27;;;;;;;0.00;0.00;;;10.90;99.90;;;;;;5068513;28;20112;-73
2023/01/05 03:48:53;;;;;;;0.00;0.00;;;;;;;;;;5071000;28;20012;-73
2023/01/05 03:51:18;;;;;;;0.60;0.10;;;10.80;99.90;;;;;;5069687;28;20074;-73
2023/01/05 03:53:44;;;;;;;0.00;0.00;;;10.80;99.90;;;;;;5070984;28;20028;-73
2023/01/05 03:56:10;;;;;;;0.00;0.00;;;;;;;;;;5069358;28;20036;-73
2023/01/05 03:58:36;;;;;;;0.10;0.10;;;10.90;99.90;;;;;;5070604;28;20036;-73
2023/01/05 04:01:01;;;;;;;0.00;0.00;;;10.90;99.90;;;;;;5069216;28;20366;-73
2023/01/05 04:03:27;;;;;;;0.00;0.00;;;;;;;;;;5070639;28;20473;-73
2023/01/05 04:05:53;;;;;;;0.00;0.00;;;10.80;99.90;;;;;;5069804;28;20031;-72
2023/01/05 04:08:19;;;;;;;0.00;0.00;;;10.90;99.90;;;;;;5068801;28;20024;-73
2023/01/05 04:10:44;;;;;;;0.00;0.00;;;11.00;99.90;;;;;;5070772;28;20027;-73
2023/01/05 04:13:10;;;;;;;0.00;0.00;;;11.10;99.90;;;;;;5070453;28;20179;-73
2023/01/05 04:15:36;;;;;;;0.00;0.00;;;11.00;99.90;;;;;;5069883;28;20390;-73
2023/01/05 04:18:01;;;;;;;0.00;0.00;;;10.80;99.90;;;;;;5069306;28;20481;-72
2023/01/05 04:20:27;;;;;;;0.10;0.10;;;;;;;;;;5069246;28;20481;-73
2023/01/05 04:22:53;;;;;;;0.00;0.00;;;11.20;99.90;;;;;;5070538;28;20029;-73
2023/01/05 04:25:18;;;;;;;0.00;0.00;;;11.00;99.90;;;;;;5069844;28;20056;-74
2023/01/05 04:27:44;;;;;;;0.00;0.00;;;11.10;99.90;;;;;;5070035;28;20094;-72
2023/01/05 04:30:10;;;;;;;0.00;0.00;;;11.10;99.90;;;;;;5069908;28;20058;-72
2023/01/05 04:32:36;;;;;;;0.00;0.00;;;11.00;99.90;;;;;;5070135;28;20024;-73
2023/01/05 04:35:02;;;;;;;0.00;0.00;;;11.20;99.90;;;;;;5070377;28;20457;-73
2023/01/05 04:37:27;;;;;;;0.05;0.05;;;11.00;99.90;;;;;;5070136;28;20032;-73
2023/01/05 04:39:53;;;;;;;0.00;0.00;;;;;;;;;;5069264;28;20647;-73
2023/01/05 04:42:19;;;;;;;0.00;0.00;;;11.10;99.90;;;;;;5069936;28;20033;-72
2023/01/05 04:44:45;;;;;;;0.00;0.00;;;11.20;99.90;;;;;;5069731;28;20049;-73
2023/01/05 04:47:10;;;;;;;0.00;0.00;;;11.00;99.90;;;;;;5068614;28;20036;-73
2023/01/05 04:49:36;;;;;;;0.00;0.00;;;11.20;99.90;;;;;;5070125;28;20086;-73
2023/01/05 04:52:01;;;;;;;0.00;0.00;;;11.10;99.90;;;;;;5070468;28;20052;-72
2023/01/05 04:54:28;;;;;;;0.00;0.00;;;10.90;99.90;;;;;;5070499;28;20024;-72
2023/01/05 04:56:53;;;;;;;0.00;0.00;;;11.10;99.90;;;;;;5070013;28;20562;-72
2023/01/05 04:59:19;;;;;;;0.00;0.00;;;11.00;99.90;;;;;;5070226;28;20036;-73
2023/01/05 05:01:45;;;;;;;0.00;0.00;;;11.00;99.90;;;;;;5069472;28;20078;-73
2023/01/05 05:04:11;;;;;;;0.00;0.00;;;11.00;99.90;;;;;;5070484;28;20021;-72
2023/01/05 05:06:36;;;;;;;0.10;0.10;;;11.00;99.90;;;;;;5069943;28;20028;-72
2023/01/05 05:09:02;;;;;;;0.00;0.00;;;11.10;99.90;;;;;;5069768;28;20024;-73
2023/01/05 05:11:28;;;;;;;0.20;0.20;;;10.90;99.90;;;;;;5070025;28;20457;-73
2023/01/05 05:13:54;;;;;;;0.00;0.00;;;;;;;;;;5069659;28;20027;-73
2023/01/05 05:16:19;;;;;;;0.00;0.00;;;10.90;99.90;;;;;;5069373;28;20135;-73
2023/01/05 05:18:46;;;;;;;0.00;0.00;;;11.00;99.90;;;;;;5069513;28;20115;-72
2023/01/05 05:21:11;;;;;;;0.00;0.00;;;10.90;99.90;;;;;;5069515;28;20028;-73
2023/01/05 05:23:37;;;;;;;0.10;0.10;;;10.90;99.90;;;;;;5068187;28;20094;-72
2023/01/05 05:26:02;;;;;;;0.03;0.03;;;11.00;99.90;;;;;;5068418;28;20020;-72
2023/01/05 05:28:29;;;;;;;0.00;0.00;;;;;;;;;;5069769;28;20104;-73
2023/01/05 05:30:55;;;;;;;0.00;0.00;;;10.90;99.90;;;;;;5069484;28;20032;-72
2023/01/05 05:33:21;;;;;;;0.10;0.10;;;11.20;99.90;;;;;;5069550;28;20127;-72
2023/01/05 05:35:47;;;;;;;0.00;0.00;;;11.10;99.90;;;;;;5068331;28;20028;-73
2023/01/05 05:38:13;;;;;;;0.00;0.00;;;10.90;99.90;;;;;;5069493;28;20112;-72
2023/01/05 05:40:38;;;;;;;0.00;0.00;;;10.80;99.90;;;;;;5069677;28;20044;-72
2023/01/05 05:43:04;;;;;;;0.05;0.05;;;10.80;99.90;;;;;;5069460;28;20267;-72
2023/01/05 05:45:30;;;;;;;0.00;0.00;;;10.80;99.90;;;;;;5068143;28;20056;-72
2023/01/05 05:47:56;;;;;;;0.00;0.00;;;10.90;99.90;;;;;;5069690;28;20058;-73
2023/01/05 05:50:22;;;;;;;0.10;0.10;;;10.80;99.90;;;;;;5069490;28;20041;-72
2023/01/05 05:52:48;;;;;;;0.10;0.10;;;10.80;99.90;;;;;;5072319;28;20382;-73
2023/01/05 05:55:13;;;;;;;0.00;0.00;;;10.80;99.90;;;;;;5074270;28;20095;-72
2023/01/05 05:57:39;;;;;;;0.10;0.10;;;10.80;99.90;;;;;;5073772;28;20588;-73
2023/01/05 06:00:06;;;;;;;0.00;0.00;;;10.80;99.90;;;;;;5073285;28;20469;-74
2023/01/05 06:02:32;;;;;;;1.85;0.10;;;;;;;;;;5072849;28;20173;-73
2023/01/05 06:04:57;;;;;;;0.10;0.10;;;10.80;99.90;;;;;;5071580;28;20107;-73
2023/01/05 06:07:23;;;;;;;0.00;0.00;;;10.70;99.90;;;;;;5073045;28;20112;-73
2023/01/05 06:09:49;;;;;;;0.10;0.10;;;;;;;;;;5072723;28;20024;-73
2023/01/05 06:12:15;;;;;;;0.03;0.03;;;10.70;99.90;;;;;;5071233;28;20031;-73
2023/01/05 06:14:40;;;;;;;1.25;0.05;;;10.70;99.90;;;;;;5072223;28;20527;-73
2023/01/05 06:17:06;;;;;;;0.00;0.00;;;10.90;99.90;;;;;;5072548;28;20032;-73
2023/01/05 06:19:32;;;;;;;0.00;0.00;;;10.60;99.90;;;;;;5072941;28;20031;-73
2023/01/05 06:21:57;;;;;;;0.00;0.00;;;10.70;99.90;;;;;;5072550;28;20024;-73
2023/01/05 06:24:23;;;;;;;0.00;0.00;;;10.80;99.90;;;;;;5072576;28;20052;-73
2023/01/05 06:26:48;;;;;;;0.03;0.03;;;10.80;99.90;;;;;;5073147;28;20043;-73
2023/01/05 06:29:14;;;;;;;0.30;0.08;;;10.70;99.90;;;;;;5072362;28;20024;-72
2023/01/05 06:31:40;;;;;;;0.00;0.00;;;10.80;99.90;;;;;;5070826;28;20052;-73
2023/01/05 06:34:06;;;;;;;0.00;0.00;;;;;;;;;;5073101;28;20530;-74
2023/01/05 06:36:31;;;;;;;0.00;0.00;;;10.80;99.90;;;;;;5071139;28;20036;-73
2023/01/05 06:38:57;;;;;;;0.00;0.00;;;10.80;99.90;;;;;;5072390;28;20029;-73
2023/01/05 06:41:23;;;;;;;0.17;0.17;;;10.70;99.90;;;;;;5072525;28;20021;-73
2023/01/05 06:43:49;;;;;;;0.10;0.08;;;;;;;;;;5072500;28;20039;-73
2023/01/05 06:46:14;;;;;;;0.00;0.00;;;10.70;99.90;;;;;;5071946;28;20027;-73
2023/01/05 06:48:40;;;;;;;0.00;0.00;;;10.70;99.90;;;;;;5072148;28;20043;-73
2023/01/05 06:51:06;;;;;;;0.00;0.00;;;10.70;99.90;;;;;;5070732;28;20032;-73
2023/01/05 06:53:31;;;;;;;0.00;0.00;;;10.80;99.90;;;;;;5070609;28;20456;-73
2023/01/05 06:55:57;;;;;;;0.00;0.00;;;10.70;99.90;;;;;;5082667;28;20086;-73
2023/01/05 06:58:23;;;;;;;0.10;0.10;;;10.80;99.90;;;;;;5091897;28;20032;-73
2023/01/05 07:00:48;;;;;;;0.00;0.00;;;11.00;99.90;;;;;;5090469;28;20474;-73
2023/01/05 07:03:14;;;;;;;0.10;0.10;;;;;;;;;;5090913;28;20028;-73
2023/01/05 07:05:41;;;;;;;0.10;0.10;;;11.20;99.90;;;;;;5091694;28;20099;-73
2023/01/05 07:08:06;;;;;;;0.00;0.00;;;11.00;99.90;;;;;;5091843;28;20428;-73
2023/01/05 07:10:32;;;;;;;0.00;0.00;;;10.70;99.90;;;;;;5091763;28;20095;-73
2023/01/05 07:12:58;;;;;;;0.10;0.10;;;10.80;99.90;;;;;;5091797;28;20024;-73
2023/01/05 07:15:23;;;;;;;2.25;0.10;;;10.70;99.90;;;;;;5090210;28;20017;-73
2023/01/05 07:17:49;;;;;;;0.00;0.00;;;10.90;99.90;;;;;;5090388;28;20114;-73
2023/01/05 07:20:15;;;;;;;0.00;0.00;;;10.80;99.90;;;;;;5090111;28;20107;-73
2023/01/05 07:22:40;;;;;;;0.00;0.00;;;10.90;99.90;;;;;;5091776;28;20358;-73
2023/01/05 07:25:07;;;;;;;0.28;0.28;;;11.00;99.90;;;;;;5091370;28;20293;-73
2023/01/05 07:27:33;;;;;;;0.10;0.10;;;11.00;99.90;;;;;;5091418;28;20024;-73
2023/01/05 07:29:59;;;;;;;0.08;0.08;;;11.00;99.90;;;;;;5090223;28;20392;-72
2023/01/05 07:32:24;;;;;;;0.10;0.10;;;10.90;99.90;;;;;;5090228;28;20020;-73
2023/01/05 07:34:50;;;;;;;0.15;0.03;;;11.00;99.90;;;;;;5091594;28;20034;-73
2023/01/05 07:37:16;;;;;;;0.00;0.00;;;11.10;99.90;;;;;;5090134;28;20032;-73
2023/01/05 07:39:42;;;;;;;0.00;0.00;;;;;;;;;;5090115;28;20016;-73
2023/01/05 07:42:08;;;;;;;0.00;0.00;;;;;;;;;;5091396;28;20024;-73
2023/01/05 07:44:34;;;;;;;0.00;0.00;;;;;;;;;;5091113;28;20447;-73
2023/01/05 07:47:00;;;;;;;0.10;0.10;;;11.30;99.90;;;;;;5091229;28;20042;-73
2023/01/05 07:49:26;;;;;;;0.17;0.17;;;11.20;99.90;;;;;;5091749;28;20062;-73
2023/01/05 07:51:51;;;;;;;0.10;0.10;;;11.30;99.90;;;;;;5091607;28;20028;-73
2023/01/05 07:54:17;;;;;;;0.20;0.20;;;11.20;99.90;;;;;;5089983;28;20020;-73
2023/01/05 07:56:43;;;;;;;0.08;0.08;;;11.30;99.90;;;;;;5091177;28;21110;-73
2023/01/05 07:59:09;;;;;;;0.10;0.10;;;;;;;;;;5090920;28;20028;-73
2023/01/05 08:01:35;;;;;;;0.10;0.10;;;;;;;;;;5090905;28;20028;-73
2023/01/05 08:04:00;;;;;;;0.03;0.03;;;11.20;99.90;;;;;;5091089;28;20017;-73
2023/01/05 08:06:26;;;;;;;0.88;0.17;;;11.30;99.90;;;;;;5090920;28;20609;-73
2023/01/05 08:08:52;;;;;;;0.20;0.20;;;11.30;99.90;;;;;;5090853;28;20020;-73
2023/01/05 08:11:20;;;;;;;0.15;0.15;;;11.20;99.90;;;;;;5090830;28;20046;-73
2023/01/05 08:13:58;;;;;;;0.00;0.00;;;11.30;99.90;;;;;;5089371;28;20020;-73
2023/01/05 08:16:25;;;;;;;0.00;0.00;;;11.20;99.90;;;;;;5090430;28;20039;-73
2023/01/05 08:18:51;;;;;;;4.95;0.32;;;;;;;;;;5090761;28;20012;-73
2023/01/05 08:21:17;;;;;;;0.28;0.20;;;11.20;99.90;;;;;;5090806;28;20032;-73
2023/01/05 08:23:44;;;;;;;0.13;0.10;;;11.30;99.90;;;;;;5090396;28;20035;-73
2023/01/05 08:26:22;;;;;;;0.80;0.10;;;11.30;99.90;;;;;;5090504;28;20031;-73
2023/01/05 08:28:49;;;;;;;0.28;0.15;;;11.20;99.90;;;;;;5088535;28;20338;-73
2023/01/05 08:31:20;;;;;;;0.10;0.10;;;11.40;99.90;;;;;;5090227;28;20031;-73
2023/01/05 08:33:46;;;;;;;0.10;0.10;;;11.40;99.90;;;;;;5090958;28;20024;-73
2023/01/05 08:36:14;;;;;;;0.00;0.00;;;;;;;;;;5090790;28;20055;-73
2023/01/05 08:38:47;;;;;;;0.10;0.10;;;11.40;99.90;;;;;;5088308;28;20031;-74
2023/01/05 08:41:15;;;;;;;0.10;0.10;;;11.40;99.90;;;;;;5089489;28;20016;-73
2023/01/05 08:43:41;;;;;;;0.20;0.10;;;11.30;99.90;;;;;;5088853;28;20024;-73
2023/01/05 08:46:06;;;;;;;0.00;0.00;;;11.40;99.90;;;;;;5088629;28;20556;-74
2023/01/05 08:48:32;;;;;;;0.20;0.20;;;11.40;99.90;;;;;;5088980;28;20429;-73
2023/01/05 08:51:02;;;;;;;0.20;0.20;;;11.40;99.90;;;;;;5087226;28;20078;-73
2023/01/05 08:53:28;;;;;;;0.43;0.20;;;11.50;99.90;;;;;;5088514;28;20044;-73
2023/01/05 08:55:54;;;;;;;0.10;0.10;;;;;;;;;;5088306;28;20384;-74
2023/01/05 08:58:20;;;;;;;0.00;0.00;;;;;;;;;;5089045;28;20020;-73
2023/01/05 09:00:46;;;;;;;0.10;0.10;;;11.40;99.90;;;;;;5088469;28;20555;-73
2023/01/05 09:03:12;;;;;;;0.10;0.10;;;11.50;99.90;;;;;;5090078;28;20035;-73
2023/01/05 09:05:37;;;;;;;0.13;0.13;;;11.40;99.90;;;;;;5089649;28;20042;-73
2023/01/05 09:08:03;;;;;;;0.00;0.00;;;11.40;99.90;;;;;;5089870;28;20469;-73
2023/01/05 09:10:29;;;;;;;0.10;0.10;;;;;;;;;;5090011;28;20024;-73
2023/01/05 09:12:55;;;;;;;0.55;0.10;;;11.50;99.90;;;;;;5088573;28;20031;-74
2023/01/05 09:15:21;;;;;;;0.10;0.10;;;11.50;99.90;;;;;;5088500;28;20114;-73
2023/01/05 09:17:47;;;;;;;0.25;0.10;;;;;;;;;;5089857;28;20032;-74
2023/01/05 09:20:13;;;;;;;0.03;0.03;;;11.80;99.90;;;;;;5088950;28;20071;-73
2023/01/05 09:22:39;;;;;;;0.10;0.10;;;11.80;99.90;;;;;;5090016;28;20031;-74
2023/01/05 09:25:05;;;;;;;0.00;0.00;;;11.80;99.90;;;;;;5089747;28;20040;-73
2023/01/05 09:27:30;;;;;;;0.25;0.17;;;12.00;99.90;;;;;;5091827;28;20081;-74
2023/01/05 09:29:56;;;;;;;0.03;0.03;;;12.10;99.90;;;;;;5093795;28;20427;-74
2023/01/05 09:32:23;;;;;;;0.10;0.10;;;;;;;;;;5093831;28;20052;-73
2023/01/05 09:34:49;;;;;;;0.00;0.00;;;12.30;99.90;;;;;;5093977;28;20028;-74
2023/01/05 09:37:14;;;;;;;0.00;0.00;;;12.40;99.90;;;;;;5093706;28;20036;-75
2023/01/05 09:39:40;;;;;;;0.47;0.10;;;12.20;99.90;;;;;;5092289;28;20024;-74
2023/01/05 09:42:10;;;;;;;0.00;0.00;;;12.30;99.90;;;;;;5093693;28;20101;-73
2023/01/05 09:44:41;;;;;;;0.15;0.10;;;12.20;99.90;;;;;;5093769;28;20099;-73
2023/01/05 09:47:31;;;;;;;0.10;0.10;;;12.30;99.90;;;;;;5093471;28;20031;-74
2023/01/05 09:49:58;;;;;;;;;;;12.40;99.90;;;;;;5093848;28;20020;-74
2023/01/05 09:52:24;;;;;;;0.15;0.15;;;12.50;99.90;;;;;;5093319;28;19960;-74
2023/01/05 09:54:50;;;;;;;0.00;0.00;;;12.60;99.90;;;;;;5093266;28;20477;-75
2023/01/05 09:57:22;;;;;;;0.10;0.10;;;12.60;99.90;;;;;;5093363;28;20046;-75
2023/01/05 09:59:59;;;;;;;0.08;0.08;;;12.50;99.90;;;;;;5091694;28;20028;-75
2023/01/05 10:02:33;;;;;;;0.88;0.10;;;12.40;99.90;;;;;;5093523;28;20173;-75
2023/01/05 10:05:01;;;;;;;0.10;0.10;;;12.30;99.90;;;;;;5093244;28;20114;-75
2023/01/05 10:07:38;;;;;;;0.10;0.10;;;12.30;99.90;;;;;;5093184;28;20023;-75
2023/01/05 10:10:14;;;;;;;0.17;0.15;;;12.30;99.90;;;;;;5092980;28;20497;-75
2023/01/05 10:13:10;;;;;;;0.05;0.05;;;12.30;99.90;;;;;;5093102;28;20438;-75
2023/01/05 10:15:45;;;;;;;0.20;0.20;;;12.30;99.90;;;;;;5092716;28;20021;-75
2023/01/05 10:18:16;;;;;;;0.00;0.00;;;12.40;99.90;;;;;;5068119;28;20041;-74
2023/01/05 10:21:02;;;;;;;0.05;0.05;;;12.30;99.90;;;;;;5053056;28;20366;-74
2023/01/05 10:23:31;;;;;;;0.28;0.10;;;12.30;99.90;;;;;;5052480;28;20034;-75
2023/01/05 10:26:08;;;;;;;0.00;0.00;;;12.40;99.90;;;;;;5052681;28;20021;-75
2023/01/05 10:28:58;;;;;;;0.03;0.03;;;12.10;99.90;;;;;;5051237;28;20021;-75
2023/01/05 10:31:51;;;;;;;0.03;0.03;;;12.00;99.90;;;;;;5052523;28;20025;-74
2023/01/05 10:34:35;;;;;;;0.08;0.08;;;12.00;99.90;;;;;;5051103;28;20381;-74
2023/01/05 10:37:16;;;;;;;0.00;0.00;;;12.10;99.90;;;;;;5051485;28;20037;-74
2023/01/05 10:39:59;;;;;;;0.00;0.00;;;12.10;99.90;;;;;;5052736;28;20025;-75
2023/01/05 10:42:36;;;;;;;0.00;0.00;;;12.10;99.90;;;;;;5052036;28;20029;-74
2023/01/05 10:45:03;;;;;;;0.10;0.10;;;12.20;99.90;;;;;;5051511;28;20052;-74
2023/01/05 10:47:31;;;;;;;0.00;0.00;;;;;;;;;;5054133;28;20028;-77
2023/01/05 10:50:00;;;;;;;0.10;0.10;;;;;;;;;;5088304;28;20103;-75
2023/01/05 10:52:26;;;;;;;0.10;0.10;;;;;;;;;;5065940;28;20080;-77
2023/01/05 10:54:59;;;;;;;0.10;0.10;;;12.80;99.90;;;;;;5065157;28;20038;-77
2023/01/05 10:57:27;;;;;;;0.30;0.30;;;12.30;99.90;;;;;;5068559;28;20648;-75
2023/01/05 10:59:59;;;;;;;0.10;0.10;;;12.40;99.90;;;;;;5063923;28;20060;-75
2023/01/05 11:02:28;;;;;;;1.00;0.15;;;12.30;99.90;;;;;;5068584;28;20048;-77
2023/01/05 11:05:01;;;;;;;0.87;0.00;;;12.40;99.90;;;;;;5069147;28;20021;-77
2023/01/05 11:07:27;;;;;;;0.10;0.10;;;;;;;;;;5068478;28;20107;-77
2023/01/05 11:09:53;;;;;;;0.03;0.03;;;12.30;99.90;;;;;;5069108;28;20103;-77
2023/01/05 11:12:22;;;;;;;0.00;0.00;;;12.30;99.90;;;;;;5056013;28;20033;-77
2023/01/05 11:14:57;;;;;;;0.00;0.00;;;12.00;99.90;;;;;;5049113;28;20070;-77
2023/01/05 11:17:26;;;;;;;0.25;0.10;;;11.90;99.90;;;;;;5047034;28;20480;-77
2023/01/05 11:19:54;;;;;;;0.10;0.10;;;11.90;99.90;;;;;;5049008;28;20036;-77
2023/01/05 11:22:32;;;;;;;0.00;0.00;;;11.70;99.90;;;;;;5047256;28;20025;-77
2023/01/05 11:25:15;;;;;;;0.10;0.10;;;11.90;99.90;;;;;;5048308;28;20122;-77
2023/01/05 11:27:41;;;;;;;0.00;0.00;;;12.00;99.90;;;;;;5046785;28;20529;-77
2023/01/05 11:30:19;;;;;;;0.10;0.10;;;12.00;99.90;;;;;;5047261;28;20029;-77
2023/01/05 11:32:45;;;;;;;0.00;0.00;;;12.10;99.90;;;;;;5046908;28;20378;-77
2023/01/05 11:35:36;;;;;;;0.00;0.00;;;12.20;99.90;;;;;;5046731;28;20028;-77
2023/01/05 11:38:02;;;;;;;0.00;0.00;;;;;;;;;;5047803;28;20097;-77
2023/01/05 11:40:35;;;;;;;0.32;0.10;;;12.40;99.90;;;;;;5047762;28;20029;-77
2023/01/05 11:43:10;;;;;;;0.10;0.10;;;12.30;99.90;;;;;;5049683;28;20505;-77
2023/01/05 11:45:52;;;;;;;0.00;0.00;;;12.30;99.90;;;;;;5050292;28;20496;-77
2023/01/05 11:48:22;;;;;;;0.00;0.00;;;12.40;99.90;;;;;;5050383;28;20501;-77
2023/01/05 11:50:50;;;;;;;0.10;0.10;;;12.60;99.90;;;;;;5048974;28;20082;-77
2023/01/05 11:53:32;;;;;;;0.10;0.10;;;12.50;99.90;;;;;;5048278;28;20114;-77
2023/01/05 11:56:05;;;;;;;0.00;0.00;;;12.60;99.90;;;;;;5047431;28;20025;-78
2023/01/05 11:58:36;;;;;;;0.10;0.10;;;12.60;99.90;;;;;;5046196;28;20029;-78
2023/01/05 12:01:10;;;;;;;0.03;0.00;;;12.60;99.90;;;;;;5047427;28;20544;-78
2023/01/05 12:03:45;;;;;;;0.00;0.00;;;12.70;99.90;;;;;;5046073;28;20028;-77
2023/01/05 12:06:24;;;;;;;0.10;0.10;;;;;;;;;;5047550;28;20442;-77
2023/01/05 12:08:50;;;;;;;0.10;0.10;;;;;;;;;;5047708;28;20055;-77
2023/01/05 12:11:22;;;;;;;0.00;0.00;;;12.90;99.90;;;;;;5047292;28;20061;-77
2023/01/05 12:14:01;;;;;;;0.00;0.00;;;12.80;99.90;;;;;;5047434;28;20040;-77
2023/01/05 12:16:53;;;;;;;0.47;0.10;;;12.80;99.90;;;;;;5045622;28;20025;-76
2023/01/05 12:19:39;;;;;;;0.03;0.03;;;12.90;99.90;;;;;;5062639;28;20040;-77
2023/01/05 12:22:29;;;;;;;0.05;0.05;;;12.90;99.90;;;;;;5047124;28;20025;-75
2023/01/05 12:24:55;;;;;;;0.10;0.10;;;;;;;;;;5045600;28;20069;-75
2023/01/05 12:27:51;;;;;;;0.10;0.10;;;12.70;99.90;;;;;;5044481;28;20049;-75
2023/01/05 12:30:49;;;;;;;0.00;0.00;;;12.60;99.90;;;;;;5027172;28;20037;-75
2023/01/05 12:33:23;;;;;;;0.30;0.20;;;12.50;99.90;;;;;;5042890;28;20037;-75
2023/01/05 12:36:09;;;;;;;0.25;0.15;;;12.50;99.90;;;;;;5043785;28;20094;-75
2023/01/05 12:38:56;;;;;;;0.00;0.00;;;12.50;99.90;;;;;;5045275;28;20083;-75
2023/01/05 12:41:30;;;;;;;0.17;0.17;;;12.50;99.90;;;;;;5045675;28;20114;-75
2023/01/05 12:44:27;;;;;;;0.20;0.20;;;10.70;99.90;;;;;;5044241;28;20033;-75
2023/01/05 12:47:15;;;;;;;0.17;0.17;;;12.40;99.90;;;;;;5049268;28;20414;-75
2023/01/05 12:49:54;;;;;;;0.10;0.10;;;12.10;99.90;;;;;;5046023;28;20032;-75
2023/01/05 12:52:42;;;;;;;0.10;0.10;;;12.10;99.90;;;;;;5060204;28;20600;-75
2023/01/05 12:55:16;;;;;;;0.22;0.10;;;;;;;;;;5060108;28;20436;-75
2023/01/05 12:57:56;;;;;;;0.10;0.10;;;12.10;99.90;;;;;;5060558;28;20488;-75
2023/01/05 13:00:24;;;;;;;0.13;0.13;;;;;;;;;;5061035;28;20032;-75
2023/01/05 13:03:04;;;;;;;0.10;0.10;;;12.10;99.90;;;;;;5047014;28;20132;-75
2023/01/05 13:05:51;;;;;;;0.22;0.22;;;;;;;;;;5047190;28;20025;-75
2023/01/05 13:08:23;;;;;;;0.10;0.10;;;12.30;99.90;;;;;;5061795;28;20024;-75
2023/01/05 13:10:49;;;;;;;0.00;0.00;;;;;;;;;;5046457;28;20052;-75
2023/01/05 13:13:40;;;;;;;0.10;0.10;;;12.40;99.90;;;;;;5061719;28;20025;-75
2023/01/05 13:16:37;;;;;;;0.10;0.10;;;12.70;99.90;;;;;;5051770;28;20386;-75
2023/01/05 13:19:19;;;;;;;0.52;0.47;;;12.20;99.90;;;;;;5029440;28;20461;-75
2023/01/05 13:21:46;;;;;;;0.20;0.20;;;12.10;99.90;;;;;;5046128;28;20021;-75
2023/01/05 13:24:29;;;;;;;0.20;0.20;;;12.10;99.90;;;;;;5061814;28;20049;-75
2023/01/05 13:26:58;;;;;;;1.88;0.35;;;12.00;99.90;;;;;;5046341;28;20528;-75
2023/01/05 13:29:27;;;;;;;0.08;0.08;;;11.80;99.90;;;;;;5046226;28;20030;-75
2023/01/05 13:32:04;;;;;;;0.22;0.22;;;11.70;99.90;;;;;;5046203;28;20029;-74
2023/01/05 13:34:48;;;;;;;0.70;0.50;;;11.70;99.90;;;;;;5046378;28;20029;-75
2023/01/05 13:37:41;;;;;;;0.10;0.10;;;11.30;99.90;;;;;;5061535;28;20504;-75
2023/01/05 13:40:27;;;;;;;0.10;0.10;;;11.50;99.90;;;;;;5046666;28;20043;-75
2023/01/05 13:43:03;;;;;;;0.10;0.10;;;11.70;99.90;;;;;;5046051;28;20290;-75
2023/01/05 13:45:56;;;;;;;0.30;0.30;;;11.70;99.90;;;;;;5046446;28;20029;-75
2023/01/05 13:49:10;;;;;;;0.10;0.10;;;11.90;99.90;;;;;;5046390;28;20021;-75
2023/01/05 13:51:58;;;;;;;0.00;0.00;;;11.90;99.90;;;;;;4999612;28;20454;-75